createdAt,value
2022-12-20T00:01:36.040Z,2.17
2022-12-20T00:04:06.573Z,2.45
2022-12-20T00:06:35.438Z,2.03
2022-12-20T00:09:05.469Z,2.80
2022-12-20T00:11:34.039Z,1.90
2022-12-20T00:14:02.056Z,2.25
2022-12-20T00:16:31.783Z,1.75
2022-12-20T00:19:02.911Z,2.47
2022-12-20T00:21:32.129Z,2.08
2022-12-20T00:24:00.349Z,2.35
2022-12-20T00:26:30.413Z,1.75
2022-12-20T00:28:59.079Z,2.27
2022-12-20T00:31:28.866Z,2.47
2022-12-20T00:34:00.371Z,2.00
2022-12-20T00:36:30.163Z,2.15
2022-12-20T00:39:00.318Z,1.83
2022-12-20T00:41:30.375Z,2.17
2022-12-20T00:43:58.718Z,1.97
2022-12-20T00:46:27.162Z,2.65
2022-12-20T00:48:56.852Z,1.73
2022-12-20T00:51:28.137Z,1.63
2022-12-20T00:53:57.050Z,1.65
2022-12-20T00:56:26.000Z,1.88
2022-12-20T00:59:00.482Z,1.40
2022-12-20T01:01:30.797Z,1.58
2022-12-20T01:03:59.592Z,2.40
2022-12-20T01:06:29.911Z,1.40
2022-12-20T01:08:58.683Z,1.42
2022-12-20T01:11:29.557Z,1.52
2022-12-20T01:14:01.079Z,1.48
2022-12-20T01:16:31.675Z,1.75
2022-12-20T01:18:59.856Z,1.98
2022-12-20T01:21:29.509Z,1.30
2022-12-20T01:23:57.944Z,2.10
2022-12-20T01:26:28.636Z,1.70
2022-12-20T01:28:58.487Z,1.58
2022-12-20T01:31:27.474Z,2.00
2022-12-20T01:33:55.527Z,1.52
2022-12-20T01:36:26.206Z,0.90
2022-12-20T01:38:59.814Z,1.75
2022-12-20T01:41:29.400Z,1.63
2022-12-20T01:43:59.227Z,1.55
2022-12-20T01:46:29.431Z,1.70
2022-12-20T01:49:00.981Z,1.50
2022-12-20T01:51:32.110Z,1.65
2022-12-20T01:54:06.162Z,2.03
2022-12-20T01:56:34.550Z,1.85
2022-12-20T01:59:03.197Z,1.73
2022-12-20T02:01:31.224Z,1.73
2022-12-20T02:03:59.309Z,1.77
2022-12-20T02:06:28.910Z,2.20
2022-12-20T02:09:02.293Z,2.03
2022-12-20T02:11:52.560Z,2.30
2022-12-20T02:14:33.227Z,3.00
2022-12-20T02:17:11.359Z,3.00
2022-12-20T02:20:18.952Z,2.28
2022-12-20T02:23:02.885Z,1.80
2022-12-20T02:25:50.574Z,1.73
2022-12-20T02:28:40.585Z,2.20
2022-12-20T02:31:15.085Z,1.50
2022-12-20T02:33:47.962Z,2.33
2022-12-20T02:36:18.032Z,1.92
2022-12-20T02:38:47.363Z,1.98
2022-12-20T02:41:20.436Z,2.05
2022-12-20T02:44:10.034Z,1.90
2022-12-20T02:46:43.811Z,2.85
2022-12-20T02:49:16.373Z,1.70
2022-12-20T02:51:48.380Z,2.15
2022-12-20T02:54:17.811Z,1.85
2022-12-20T02:56:55.763Z,1.73
2022-12-20T02:59:30.619Z,1.48
2022-12-20T03:02:00.751Z,1.63
2022-12-20T03:04:31.349Z,2.28
2022-12-20T03:07:01.816Z,2.10
2022-12-20T03:09:32.236Z,1.80
2022-12-20T03:12:00.546Z,2.50
2022-12-20T03:14:28.885Z,3.45
2022-12-20T03:17:00.528Z,2.25
2022-12-20T03:19:28.690Z,2.90
2022-12-20T03:21:58.860Z,2.03
2022-12-20T03:24:27.231Z,2.53
2022-12-20T03:26:55.985Z,3.00
2022-12-20T03:29:25.875Z,2.65
2022-12-20T03:31:54.060Z,2.95
2022-12-20T03:34:25.180Z,2.80
2022-12-20T03:39:22.084Z,2.50
2022-12-20T03:41:52.277Z,2.47
2022-12-20T03:44:20.408Z,2.45
2022-12-20T03:46:48.536Z,2.67
2022-12-20T03:49:17.417Z,3.00
2022-12-20T03:51:50.848Z,2.92
2022-12-20T03:54:19.809Z,2.15
2022-12-20T03:59:39.378Z,2.80
2022-12-20T04:02:10.412Z,2.53
2022-12-20T04:04:38.519Z,2.88
2022-12-20T04:07:09.065Z,3.22
2022-12-20T04:09:39.364Z,2.70
2022-12-20T04:12:12.430Z,2.30
2022-12-20T04:14:40.933Z,2.80
2022-12-20T04:17:08.966Z,3.20
2022-12-20T04:19:38.154Z,3.53
2022-12-20T04:22:08.530Z,2.90
2022-12-20T04:24:48.030Z,3.17
2022-12-20T04:27:25.190Z,2.53
2022-12-20T04:29:55.140Z,2.47
2022-12-20T04:32:27.143Z,2.70
2022-12-20T04:37:25.063Z,2.72
2022-12-20T04:39:55.540Z,2.65
2022-12-20T04:42:27.235Z,2.42
2022-12-20T04:44:56.296Z,2.40
2022-12-20T04:47:30.104Z,2.47
2022-12-20T04:49:58.619Z,1.95
2022-12-20T04:52:47.834Z,3.42
2022-12-20T04:55:17.017Z,2.77
2022-12-20T04:57:45.673Z,2.80
2022-12-20T05:00:15.763Z,3.33
2022-12-20T05:02:47.127Z,2.65
2022-12-20T05:05:18.617Z,2.85
2022-12-20T05:07:53.117Z,3.40
2022-12-20T05:10:21.399Z,3.22
2022-12-20T05:12:50.435Z,3.55
2022-12-20T05:15:38.800Z,3.92
2022-12-20T05:18:07.462Z,4.53
2022-12-20T05:21:12.524Z,4.20
2022-12-20T05:24:00.910Z,3.08
2022-12-20T05:26:32.592Z,2.88
2022-12-20T05:29:02.070Z,5.13
2022-12-20T05:31:30.145Z,3.83
2022-12-20T05:33:58.744Z,2.72
2022-12-20T05:36:31.053Z,2.88
2022-12-20T05:39:04.565Z,3.85
2022-12-20T05:41:34.825Z,3.08
2022-12-20T05:44:03.701Z,3.30
2022-12-20T05:49:06.737Z,3.17
2022-12-20T05:51:35.437Z,3.20
2022-12-20T05:54:13.713Z,2.63
2022-12-20T05:56:56.703Z,2.72
2022-12-20T05:59:33.146Z,3.00
2022-12-20T06:02:01.814Z,2.53
2022-12-20T06:04:30.180Z,2.75
2022-12-20T06:06:59.590Z,2.45
2022-12-20T06:09:30.135Z,2.80
2022-12-20T06:12:10.712Z,2.63
2022-12-20T06:14:40.524Z,2.17
2022-12-20T06:17:08.727Z,2.35
2022-12-20T06:19:37.231Z,2.25
2022-12-20T06:22:05.253Z,3.10
2022-12-20T06:25:09.283Z,2.60
2022-12-20T06:27:40.096Z,2.42
2022-12-20T06:30:13.431Z,2.65
2022-12-20T06:32:54.209Z,2.50
2022-12-20T06:35:22.501Z,2.00
2022-12-20T06:37:51.900Z,2.70
2022-12-20T06:40:21.510Z,2.75
2022-12-20T06:42:50.417Z,1.85
2022-12-20T06:45:20.746Z,2.60
2022-12-20T06:47:48.730Z,2.13
2022-12-20T06:50:16.740Z,2.78
2022-12-20T06:52:44.764Z,2.25
2022-12-20T06:55:12.887Z,2.55
2022-12-20T06:57:44.050Z,0.95
2022-12-20T07:00:13.581Z,0.55
2022-12-20T07:02:41.867Z,0.60
2022-12-20T07:05:10.286Z,0.50
2022-12-20T07:07:44.632Z,0.38
2022-12-20T07:10:13.678Z,0.30
2022-12-20T07:12:47.760Z,0.47
2022-12-20T07:15:16.629Z,0.50
2022-12-20T07:17:44.912Z,0.40
2022-12-20T07:20:14.393Z,0.55
2022-12-20T07:22:42.808Z,0.50
2022-12-20T07:25:12.089Z,0.93
2022-12-20T07:27:40.165Z,1.67
2022-12-20T07:30:10.773Z,1.83
2022-12-20T07:32:38.870Z,1.77
2022-12-20T07:35:07.809Z,1.60
2022-12-20T07:37:35.831Z,1.17
2022-12-20T07:40:03.800Z,1.30
2022-12-20T07:42:36.051Z,1.52
2022-12-20T07:45:09.313Z,0.93
2022-12-20T07:47:37.371Z,1.20
2022-12-20T07:50:06.267Z,0.80
2022-12-20T07:52:35.571Z,0.70
2022-12-20T07:55:09.263Z,0.40
2022-12-20T07:57:40.907Z,0.70
2022-12-20T08:00:12.055Z,1.00
2022-12-20T08:02:48.945Z,0.52
2022-12-20T08:05:18.161Z,0.60
2022-12-20T08:07:51.052Z,0.80
2022-12-20T08:10:21.969Z,0.50
2022-12-20T08:12:50.814Z,0.50
2022-12-20T08:15:22.584Z,0.50
2022-12-20T08:17:50.783Z,0.70
2022-12-20T08:20:18.926Z,0.85
2022-12-20T08:22:47.013Z,0.90
2022-12-20T08:25:15.095Z,0.70
2022-12-20T08:27:43.074Z,1.00
2022-12-20T08:30:12.572Z,0.55
2022-12-20T08:32:42.080Z,0.70
2022-12-20T08:35:10.447Z,0.50
2022-12-20T08:37:38.441Z,0.47
2022-12-20T08:40:08.671Z,0.50
2022-12-20T08:42:36.795Z,0.80
2022-12-20T08:45:05.552Z,1.00
2022-12-20T08:47:33.540Z,1.00
2022-12-20T08:50:03.458Z,0.93
2022-12-20T08:52:31.470Z,0.77
2022-12-20T08:55:01.728Z,1.30
2022-12-20T08:57:30.236Z,1.02
2022-12-20T08:59:58.170Z,1.10
2022-12-20T09:02:28.382Z,0.87
2022-12-20T09:04:56.832Z,1.50
2022-12-20T09:07:26.264Z,1.17
2022-12-20T09:09:54.232Z,1.07
2022-12-20T09:12:22.201Z,0.80
2022-12-20T09:15:15.068Z,1.10
2022-12-20T09:17:43.052Z,0.77
2022-12-20T09:20:11.537Z,0.63
2022-12-20T09:22:40.922Z,0.70
2022-12-20T09:25:09.843Z,0.83
2022-12-20T09:27:38.117Z,0.73
2022-12-20T09:30:07.003Z,0.70
2022-12-20T09:32:35.341Z,0.70
2022-12-20T09:35:03.404Z,0.97
2022-12-20T09:37:31.691Z,0.80
2022-12-20T09:40:01.169Z,0.90
2022-12-20T09:42:30.823Z,0.70
2022-12-20T09:45:07.324Z,1.23
2022-12-20T09:47:36.941Z,0.77
2022-12-20T09:50:07.603Z,0.90
2022-12-20T09:53:16.424Z,0.80
2022-12-20T09:55:54.902Z,0.82
2022-12-20T09:58:36.780Z,1.03
2022-12-20T10:01:23.057Z,0.80
2022-12-20T10:03:53.717Z,1.10
2022-12-20T10:06:33.871Z,0.87
2022-12-20T10:09:05.117Z,1.00
2022-12-20T10:11:56.905Z,1.00
2022-12-20T10:14:43.453Z,1.00
2022-12-20T10:17:15.439Z,1.30
2022-12-20T10:20:04.253Z,0.80
2022-12-20T10:22:41.898Z,1.20
2022-12-20T10:25:17.471Z,1.40
2022-12-20T10:27:48.864Z,1.37
2022-12-20T10:30:19.865Z,1.43
2022-12-20T10:35:26.342Z,1.87
2022-12-20T10:38:07.652Z,1.27
2022-12-20T10:41:18.875Z,1.20
2022-12-20T10:43:29.280Z,1.00
2022-12-20T10:45:59.941Z,1.10
2022-12-20T10:48:31.781Z,1.27
2022-12-20T10:51:04.610Z,1.23
2022-12-20T10:53:33.341Z,1.23
2022-12-20T10:56:18.367Z,0.80
2022-12-20T10:58:56.371Z,1.27
2022-12-20T11:01:28.317Z,1.47
2022-12-20T11:03:59.615Z,1.63
2022-12-20T11:09:25.955Z,1.10
2022-12-20T11:12:03.550Z,1.70
2022-12-20T11:15:10.457Z,1.77
2022-12-20T11:17:42.886Z,1.77
2022-12-20T11:20:30.593Z,1.23
2022-12-20T11:23:10.631Z,1.30
2022-12-20T11:25:55.577Z,1.60
2022-12-20T11:28:46.796Z,1.40
2022-12-20T11:34:04.512Z,2.47
2022-12-20T11:36:47.199Z,2.30
2022-12-20T11:39:24.832Z,1.30
2022-12-20T11:42:05.298Z,1.97
2022-12-20T11:44:57.962Z,2.75
2022-12-20T11:47:49.187Z,1.50
2022-12-20T11:50:33.419Z,1.40
2022-12-20T11:53:06.892Z,1.60
2022-12-20T11:56:03.258Z,2.30
2022-12-20T11:58:37.449Z,2.50
2022-12-20T12:01:12.933Z,1.97
2022-12-20T12:03:45.989Z,4.43
2022-12-20T12:06:22.381Z,1.97
2022-12-20T12:08:54.576Z,2.30
2022-12-20T12:12:04.645Z,1.92
2022-12-20T12:16:53.929Z,5.30
2022-12-20T12:19:27.594Z,2.90
2022-12-20T12:22:03.153Z,3.80
2022-12-20T12:24:36.106Z,2.53
2022-12-20T12:27:04.153Z,3.07
2022-12-20T12:29:35.502Z,3.55
2022-12-20T12:32:09.859Z,2.85
2022-12-20T12:34:53.807Z,2.00
2022-12-20T12:37:41.250Z,3.23
2022-12-20T12:40:52.578Z,4.43
2022-12-20T12:43:46.786Z,3.13
2022-12-20T12:46:18.115Z,5.33
2022-12-20T12:48:51.993Z,1.65
2022-12-20T12:51:29.133Z,3.30
2022-12-20T12:54:47.173Z,3.97
2022-12-20T12:57:16.760Z,2.97
2022-12-20T12:59:48.385Z,2.75
2022-12-20T13:02:35.329Z,4.20
2022-12-20T13:05:32.502Z,2.65
2022-12-20T13:08:02.055Z,2.25
2022-12-20T13:10:59.871Z,2.78
2022-12-20T13:13:28.329Z,3.05
2022-12-20T13:16:13.162Z,2.78
2022-12-20T13:19:14.008Z,2.72
2022-12-20T13:21:44.858Z,8.48
2022-12-20T13:24:57.569Z,4.07
2022-12-20T13:27:35.903Z,3.00
2022-12-20T13:30:26.275Z,4.80
2022-12-20T13:33:03.774Z,7.45
2022-12-20T13:35:42.297Z,3.10
2022-12-20T13:38:49.906Z,2.67
2022-12-20T13:41:32.585Z,2.63
2022-12-20T13:44:19.620Z,2.93
2022-12-20T13:46:51.850Z,3.03
2022-12-20T13:49:26.942Z,2.88
2022-12-20T13:52:23.171Z,2.10
2022-12-20T13:54:54.784Z,3.58
2022-12-20T13:57:29.381Z,3.10
2022-12-20T14:00:06.872Z,3.20
2022-12-20T14:02:41.623Z,2.75
2022-12-20T14:05:18.483Z,2.00
2022-12-20T14:07:49.062Z,4.32
2022-12-20T14:10:21.887Z,3.28
2022-12-20T14:13:20.822Z,2.38
2022-12-20T14:15:51.298Z,2.90
2022-12-20T14:18:21.768Z,4.90
2022-12-20T14:20:52.580Z,3.47
2022-12-20T14:23:23.579Z,3.47
2022-12-20T14:28:31.461Z,3.20
2022-12-20T14:31:03.477Z,4.20
2022-12-20T14:33:36.663Z,3.42
2022-12-20T14:36:19.091Z,3.80
2022-12-20T14:38:49.319Z,12.93
2022-12-20T14:41:31.999Z,5.75
2022-12-20T14:44:04.124Z,4.28
2022-12-20T14:46:35.148Z,5.50
2022-12-20T14:51:37.239Z,4.80
2022-12-20T14:54:05.661Z,4.53
2022-12-20T14:56:34.021Z,3.40
2022-12-20T14:59:17.967Z,2.85
2022-12-20T15:01:47.577Z,4.35
2022-12-20T15:04:31.322Z,3.27
2022-12-20T15:06:59.972Z,4.65
2022-12-20T15:09:28.904Z,3.20
2022-12-20T15:11:58.385Z,4.17
2022-12-20T15:14:36.589Z,4.27
2022-12-20T15:17:31.902Z,4.32
2022-12-20T15:20:00.945Z,3.10
2022-12-20T15:22:31.715Z,3.38
2022-12-20T15:24:59.727Z,3.30
2022-12-20T15:27:27.656Z,3.40
2022-12-20T15:29:55.710Z,4.30
2022-12-20T15:32:28.228Z,2.67
2022-12-20T15:34:57.898Z,3.07
2022-12-20T15:37:25.992Z,3.28
2022-12-20T15:39:53.961Z,2.83
2022-12-20T15:42:23.004Z,2.50
2022-12-20T15:44:51.732Z,3.72
2022-12-20T15:47:20.201Z,3.03
2022-12-20T15:49:50.597Z,3.87
2022-12-20T15:52:23.281Z,3.97
2022-12-20T15:54:51.786Z,3.73
2022-12-20T15:57:21.055Z,3.22
2022-12-20T16:00:00.258Z,3.07
2022-12-20T16:02:33.383Z,3.30
2022-12-20T16:05:01.656Z,4.07
2022-12-20T16:07:31.083Z,2.53
2022-12-20T16:09:59.096Z,3.43
2022-12-20T16:12:32.320Z,3.03
2022-12-20T16:15:00.332Z,2.97
2022-12-20T16:17:28.384Z,3.20
2022-12-20T16:19:56.809Z,2.40
2022-12-20T16:22:26.326Z,3.10
2022-12-20T16:24:55.992Z,2.87
2022-12-20T16:27:24.269Z,3.90
2022-12-20T16:29:52.316Z,3.27
2022-12-20T16:32:22.533Z,3.57
2022-12-20T16:34:51.690Z,3.80
2022-12-20T16:37:19.909Z,3.73
2022-12-20T16:39:48.806Z,3.50
2022-12-20T16:42:22.280Z,4.40
2022-12-20T16:44:53.514Z,4.00
2022-12-20T16:47:21.729Z,3.53
2022-12-20T16:49:53.235Z,3.47
2022-12-20T16:52:23.255Z,3.87
2022-12-20T16:54:51.682Z,4.53
2022-12-20T16:57:22.016Z,3.73
2022-12-20T16:59:50.165Z,4.05
2022-12-20T17:02:25.556Z,3.57
2022-12-20T17:04:53.729Z,3.73
2022-12-20T17:07:22.593Z,3.93
2022-12-20T17:12:38.010Z,4.07
2022-12-20T17:15:06.955Z,4.50
2022-12-20T17:17:35.068Z,4.37
2022-12-20T17:20:03.345Z,4.67
2022-12-20T17:22:31.493Z,3.93
2022-12-20T17:24:59.649Z,6.03
2022-12-20T17:27:27.623Z,5.40
2022-12-20T17:29:57.007Z,6.47
2022-12-20T17:32:26.348Z,5.27
2022-12-20T17:34:55.326Z,4.77
2022-12-20T17:37:24.635Z,5.33
2022-12-20T17:39:52.787Z,4.67
2022-12-20T17:42:23.233Z,5.90
2022-12-20T17:44:56.480Z,5.83
2022-12-20T17:47:24.405Z,5.87
2022-12-20T17:49:53.402Z,6.07
2022-12-20T17:52:21.724Z,8.20
2022-12-20T17:54:49.778Z,8.73
2022-12-20T17:57:17.847Z,9.37
2022-12-20T17:59:46.311Z,6.80
2022-12-20T18:02:24.324Z,6.03
2022-12-20T18:04:52.874Z,6.23
2022-12-20T18:07:20.917Z,7.17
2022-12-20T18:09:49.574Z,5.07
2022-12-20T18:12:17.987Z,5.60
2022-12-20T18:14:46.038Z,4.80
2022-12-20T18:17:14.345Z,4.60
2022-12-20T18:19:45.605Z,6.00
2022-12-20T18:22:14.158Z,5.17
2022-12-20T18:24:42.415Z,4.90
2022-12-20T18:27:10.448Z,5.40
2022-12-20T18:29:38.622Z,5.57
2022-12-20T18:32:06.922Z,5.30
2022-12-20T18:34:35.071Z,6.17
2022-12-20T18:37:05.693Z,6.03
2022-12-20T18:39:34.219Z,3.88
2022-12-20T18:42:02.344Z,4.93
2022-12-20T18:44:35.772Z,3.87
2022-12-20T18:47:04.857Z,5.10
2022-12-20T18:49:33.193Z,5.90
2022-12-20T18:52:01.208Z,5.77
2022-12-20T18:54:33.522Z,5.20
2022-12-20T18:57:05.871Z,5.13
2022-12-20T18:59:35.253Z,4.30
2022-12-20T19:02:03.510Z,5.20
2022-12-20T19:04:32.883Z,5.07
2022-12-20T19:07:01.090Z,5.27
2022-12-20T19:09:30.632Z,5.20
2022-12-20T19:11:59.031Z,5.30
2022-12-20T19:14:27.342Z,6.00
2022-12-20T19:16:55.618Z,6.57
2022-12-20T19:19:23.789Z,6.77
2022-12-20T19:21:52.076Z,5.90
2022-12-20T19:24:20.161Z,5.00
2022-12-20T19:26:49.876Z,5.50
2022-12-20T19:29:18.097Z,5.47
2022-12-20T19:31:46.238Z,5.70
2022-12-20T19:34:15.180Z,6.00
2022-12-20T19:36:45.021Z,5.97
2022-12-20T19:39:20.083Z,5.97
2022-12-20T19:44:40.683Z,5.77
2022-12-20T19:49:36.958Z,5.83
2022-12-20T19:52:06.126Z,6.40
2022-12-20T19:54:35.160Z,5.27
2022-12-20T19:57:04.783Z,5.50
2022-12-20T19:59:33.161Z,6.30
2022-12-20T20:02:01.619Z,7.37
2022-12-20T20:04:31.261Z,6.23
2022-12-20T20:06:59.291Z,6.10
2022-12-20T20:09:27.471Z,7.50
2022-12-20T20:11:55.488Z,6.37
2022-12-20T20:14:25.049Z,8.23
2022-12-20T20:16:53.239Z,7.20
2022-12-20T20:19:21.544Z,6.47
2022-12-20T20:21:49.880Z,5.93
2022-12-20T20:24:18.006Z,6.97
2022-12-20T20:26:46.081Z,7.50
2022-12-20T20:29:14.247Z,6.73
2022-12-20T20:31:43.706Z,7.50
2022-12-20T20:34:12.343Z,7.10
2022-12-20T20:36:40.388Z,7.67
2022-12-20T20:39:08.535Z,6.67
2022-12-20T20:41:36.563Z,5.80
2022-12-20T20:44:04.775Z,5.93
2022-12-20T20:46:32.936Z,5.87
2022-12-20T20:49:02.363Z,6.13
2022-12-20T20:51:30.488Z,6.47
2022-12-20T20:53:58.655Z,5.83
2022-12-20T20:56:26.861Z,6.23
2022-12-20T20:59:02.630Z,5.27
2022-12-20T21:01:34.126Z,5.70
2022-12-20T21:04:04.163Z,4.87
2022-12-20T21:06:40.425Z,6.37
2022-12-20T21:09:09.699Z,5.50
2022-12-20T21:11:37.998Z,6.10
2022-12-20T21:14:06.314Z,6.10
2022-12-20T21:16:34.538Z,5.60
2022-12-20T21:19:04.017Z,6.33
2022-12-20T21:21:32.042Z,6.33
2022-12-20T21:24:00.178Z,6.67
2022-12-20T21:26:28.190Z,5.83
2022-12-20T21:28:59.761Z,6.43
2022-12-20T21:31:28.665Z,6.30
2022-12-20T21:33:57.276Z,4.87
2022-12-20T21:36:27.124Z,7.30
2022-12-20T21:38:56.919Z,5.60
2022-12-20T21:41:26.585Z,6.40
2022-12-20T21:43:56.604Z,6.07
2022-12-20T21:46:24.827Z,5.83
2022-12-20T21:48:52.883Z,6.63
2022-12-20T21:51:23.459Z,5.30
2022-12-20T21:53:54.323Z,6.85
2022-12-20T21:56:23.874Z,5.50
2022-12-20T21:58:52.247Z,4.67
2022-12-20T22:01:22.255Z,5.57
2022-12-20T22:03:52.238Z,4.85
2022-12-20T22:06:20.641Z,5.17
2022-12-20T22:08:48.799Z,5.27
2022-12-20T22:11:19.553Z,4.37
2022-12-20T22:13:48.241Z,4.70
2022-12-20T22:16:17.779Z,4.77
2022-12-20T22:18:49.839Z,4.73
2022-12-20T22:21:18.695Z,4.73
2022-12-20T22:23:46.986Z,4.73
2022-12-20T22:26:17.197Z,4.87
2022-12-20T22:28:48.361Z,4.45
2022-12-20T22:33:44.946Z,4.13
2022-12-20T22:36:15.024Z,4.87
2022-12-20T22:38:44.741Z,4.57
2022-12-20T22:41:14.970Z,4.57
2022-12-20T22:43:44.565Z,5.10
2022-12-20T22:49:01.420Z,3.90
2022-12-20T22:51:31.056Z,3.93
2022-12-20T22:54:00.111Z,4.80
2022-12-20T22:56:28.120Z,5.10
2022-12-20T22:58:57.059Z,5.00
2022-12-20T23:01:26.515Z,3.83
2022-12-20T23:03:54.681Z,4.23
2022-12-20T23:06:23.071Z,4.50
2022-12-20T23:08:51.057Z,4.10
2022-12-20T23:11:39.438Z,4.40
2022-12-20T23:14:29.057Z,3.83
2022-12-20T23:17:00.064Z,4.80
2022-12-20T23:19:28.499Z,4.17
2022-12-20T23:22:14.303Z,4.07
2022-12-20T23:24:42.277Z,3.70
2022-12-20T23:27:10.196Z,4.57
2022-12-20T23:29:38.473Z,4.60
2022-12-20T23:32:08.786Z,4.53
2022-12-20T23:34:36.929Z,4.40
2022-12-20T23:37:04.851Z,4.17
2022-12-20T23:39:32.779Z,4.90
2022-12-20T23:42:00.843Z,5.43
2022-12-20T23:44:28.846Z,5.20
2022-12-20T23:46:56.737Z,3.83
2022-12-20T23:49:26.170Z,3.67
2022-12-20T23:51:54.230Z,3.73
2022-12-20T23:54:22.420Z,3.43
2022-12-20T23:56:51.053Z,3.47
2022-12-20T23:59:19.022Z,4.23
